createdAt,value
2022-11-12T00:00:45.718Z,100.00
2022-11-12T00:06:06.000Z,100.00
2022-11-12T00:11:26.438Z,100.00
2022-11-12T00:16:46.635Z,100.00
2022-11-12T00:22:07.167Z,100.00
2022-11-12T00:27:27.535Z,100.00
2022-11-12T00:32:48.071Z,100.00
2022-11-12T00:38:08.106Z,100.00
2022-11-12T00:43:29.291Z,100.00
2022-11-12T00:48:49.545Z,100.00
2022-11-12T00:54:09.951Z,100.00
2022-11-12T00:59:30.319Z,100.00
2022-11-12T01:04:50.628Z,100.00
2022-11-12T01:10:11.673Z,100.00
2022-11-12T01:15:31.903Z,100.00
2022-11-12T01:20:52.077Z,100.00
2022-11-12T01:26:14.924Z,100.00
2022-11-12T01:31:38.410Z,100.00
2022-11-12T01:36:58.987Z,100.00
2022-11-12T01:42:19.078Z,100.00
2022-11-12T01:47:39.340Z,100.00
2022-11-12T01:53:08.742Z,100.00
2022-11-12T01:58:32.145Z,100.00
2022-11-12T02:03:52.637Z,100.00
2022-11-12T02:09:13.956Z,100.00
2022-11-12T02:14:34.910Z,100.00
2022-11-12T02:19:59.326Z,100.00
2022-11-12T02:25:23.541Z,100.00
2022-11-12T02:30:47.844Z,100.00
2022-11-12T02:36:08.184Z,100.00
2022-11-12T02:41:28.674Z,100.00
2022-11-12T02:46:49.106Z,100.00
2022-11-12T02:52:09.602Z,100.00
2022-11-12T02:57:37.695Z,100.00
2022-11-12T03:03:01.440Z,100.00
2022-11-12T03:08:21.908Z,100.00
2022-11-12T03:13:42.887Z,100.00
2022-11-12T03:19:03.136Z,100.00
2022-11-12T03:24:23.323Z,100.00
2022-11-12T03:29:44.056Z,100.00
2022-11-12T03:35:04.585Z,100.00
2022-11-12T03:40:25.645Z,100.00
2022-11-12T03:45:46.580Z,100.00
2022-11-12T03:51:07.054Z,100.00
2022-11-12T03:56:27.371Z,100.00
2022-11-12T04:01:47.881Z,100.00
2022-11-12T04:07:27.310Z,100.00
2022-11-12T04:13:05.952Z,100.00
2022-11-12T04:18:44.873Z,100.00
2022-11-12T04:24:05.444Z,100.00
2022-11-12T04:29:44.248Z,100.00
2022-11-12T04:35:07.489Z,100.00
2022-11-12T04:40:46.165Z,100.00
2022-11-12T04:46:06.233Z,100.00
2022-11-12T04:51:44.976Z,100.00
2022-11-12T04:57:05.073Z,100.00
2022-11-12T05:02:25.290Z,100.00
2022-11-12T05:07:45.486Z,100.00
2022-11-12T05:13:05.891Z,100.00
2022-11-12T05:18:26.646Z,100.00
2022-11-12T05:23:47.239Z,100.00
2022-11-12T05:29:08.993Z,100.00
2022-11-12T05:34:30.095Z,100.00
2022-11-12T05:39:50.133Z,100.00
2022-11-12T05:45:10.594Z,100.00
2022-11-12T05:50:39.746Z,100.00
2022-11-12T05:56:11.631Z,100.00
2022-11-12T06:01:32.421Z,100.00
2022-11-12T06:06:52.465Z,100.00
2022-11-12T06:12:12.910Z,100.00
2022-11-12T06:17:33.177Z,100.00
2022-11-12T06:22:53.636Z,100.00
2022-11-12T06:28:14.067Z,100.00
2022-11-12T06:33:34.600Z,100.00
2022-11-12T06:38:54.931Z,100.00
2022-11-12T06:44:20.779Z,100.00
2022-11-12T06:49:42.268Z,100.00
2022-11-12T06:55:02.584Z,100.00
2022-11-12T07:00:24.265Z,100.00
2022-11-12T07:05:44.471Z,100.00
2022-11-12T07:11:05.695Z,100.00
2022-11-12T07:16:26.070Z,100.00
2022-11-12T07:21:46.528Z,100.00
2022-11-12T07:27:06.963Z,100.00
2022-11-12T07:32:27.260Z,100.00
2022-11-12T07:37:47.872Z,100.00
2022-11-12T07:43:07.979Z,100.00
2022-11-12T07:48:31.985Z,100.00
2022-11-12T07:53:58.909Z,100.00
2022-11-12T07:59:19.542Z,100.00
2022-11-12T08:04:39.991Z,100.00
2022-11-12T08:10:00.386Z,100.00
2022-11-12T08:15:21.071Z,100.00
2022-11-12T08:20:41.205Z,100.00
2022-11-12T08:26:03.677Z,100.00
2022-11-12T08:31:24.062Z,100.00
2022-11-12T08:36:44.361Z,100.00
2022-11-12T08:42:04.951Z,100.00
2022-11-12T08:47:25.498Z,100.00
2022-11-12T08:52:46.003Z,100.00
2022-11-12T08:58:06.941Z,100.00
2022-11-12T09:03:27.137Z,100.00
2022-11-12T09:08:47.856Z,100.00
2022-11-12T09:14:08.287Z,100.00
2022-11-12T09:19:28.625Z,100.00
2022-11-12T09:24:49.144Z,100.00
2022-11-12T09:30:09.981Z,100.00
2022-11-12T09:35:30.862Z,100.00
2022-11-12T09:40:51.042Z,100.00
2022-11-12T09:46:30.089Z,100.00
2022-11-12T09:52:17.026Z,100.00
2022-11-12T09:57:37.700Z,100.00
2022-11-12T10:03:21.848Z,100.00
2022-11-12T10:08:58.571Z,100.00
2022-11-12T10:14:49.574Z,100.00
2022-11-12T10:20:26.114Z,100.00
2022-11-12T10:25:50.415Z,100.00
2022-11-12T10:31:17.121Z,100.00
2022-11-12T10:36:38.937Z,100.00
2022-11-12T10:42:08.771Z,100.00
2022-11-12T10:47:42.973Z,100.00
2022-11-12T10:53:10.307Z,100.00
2022-11-12T10:58:30.696Z,75.34
2022-11-12T11:03:58.005Z,75.72
2022-11-12T11:09:21.664Z,49.28
2022-11-12T11:14:44.615Z,76.95
2022-11-12T11:20:16.109Z,68.30
2022-11-12T11:25:37.957Z,79.99
2022-11-12T11:31:24.144Z,99.68
2022-11-12T11:37:00.128Z,93.81
2022-11-12T11:43:03.884Z,88.73
2022-11-12T11:48:48.908Z,90.31
2022-11-12T11:54:15.413Z,76.17
2022-11-12T12:00:11.010Z,70.49
2022-11-12T12:05:46.244Z,64.42
2022-11-12T12:11:15.149Z,60.70
2022-11-12T12:16:43.865Z,57.00
2022-11-12T12:22:09.980Z,52.06
2022-11-12T12:27:37.928Z,43.70
2022-11-12T12:33:28.687Z,44.71
2022-11-12T12:38:55.418Z,47.19
2022-11-12T12:44:15.910Z,46.73
2022-11-12T12:49:37.570Z,44.78
2022-11-12T12:54:58.317Z,50.26
2022-11-12T13:00:41.196Z,53.50
2022-11-12T13:06:23.644Z,62.29
2022-11-12T13:12:02.523Z,84.81
2022-11-12T13:17:46.136Z,99.59
2022-11-12T13:23:10.893Z,100.00
2022-11-12T13:28:30.964Z,100.00
2022-11-12T13:33:51.468Z,100.00
2022-11-12T13:39:15.655Z,100.00
2022-11-12T13:44:35.921Z,100.00
2022-11-12T13:50:01.281Z,100.00
2022-11-12T13:55:22.815Z,100.00
2022-11-12T14:00:53.023Z,100.00
2022-11-12T14:06:37.195Z,100.00
2022-11-12T14:12:09.805Z,100.00
2022-11-12T14:18:04.348Z,100.00
2022-11-12T14:23:26.070Z,100.00
2022-11-12T14:28:46.385Z,100.00
2022-11-12T14:34:20.982Z,100.00
2022-11-12T14:39:43.141Z,100.00
2022-11-12T14:45:03.666Z,100.00
2022-11-12T14:50:34.558Z,100.00
2022-11-12T14:55:59.390Z,100.00
2022-11-12T15:07:32.892Z,100.00
2022-11-12T15:12:53.029Z,100.00
2022-11-12T15:18:33.861Z,100.00
2022-11-12T15:24:22.097Z,100.00
2022-11-12T15:29:42.345Z,100.00
2022-11-12T15:35:02.837Z,100.00
2022-11-12T15:40:23.386Z,100.00
2022-11-12T15:45:43.718Z,100.00
2022-11-12T15:51:04.171Z,100.00
2022-11-12T15:56:24.457Z,100.00
2022-11-12T16:01:44.939Z,100.00
2022-11-12T16:07:07.873Z,100.00
2022-11-12T16:12:29.456Z,100.00
2022-11-12T16:17:50.036Z,100.00
2022-11-12T16:23:10.387Z,100.00
2022-11-12T16:28:30.890Z,100.00
2022-11-12T16:33:51.265Z,100.00
2022-11-12T16:39:13.530Z,100.00
2022-11-12T16:44:33.595Z,100.00
2022-11-12T16:49:54.078Z,100.00
2022-11-12T16:55:14.661Z,100.00
2022-11-12T17:00:35.264Z,100.00
2022-11-12T17:05:55.668Z,100.00
2022-11-12T17:11:16.385Z,100.00
2022-11-12T17:16:36.471Z,100.00
2022-11-12T17:21:56.869Z,100.00
2022-11-12T17:27:17.131Z,100.00
2022-11-12T17:32:37.672Z,100.00
2022-11-12T17:37:58.042Z,100.00
2022-11-12T17:43:18.473Z,100.00
2022-11-12T17:48:38.817Z,100.00
2022-11-12T17:53:59.135Z,100.00
2022-11-12T17:59:19.348Z,100.00
2022-11-12T18:04:39.729Z,100.00
2022-11-12T18:10:00.186Z,100.00
2022-11-12T18:15:20.598Z,100.00
2022-11-12T18:20:42.542Z,100.00
2022-11-12T18:26:02.734Z,100.00
2022-11-12T18:31:25.225Z,100.00
2022-11-12T18:36:45.382Z,100.00
2022-11-12T18:42:06.061Z,100.00
2022-11-12T18:47:26.643Z,100.00
2022-11-12T18:52:47.014Z,100.00
2022-11-12T18:58:07.535Z,100.00
2022-11-12T19:03:28.120Z,100.00
2022-11-12T19:08:49.144Z,100.00
2022-11-12T19:14:09.904Z,100.00
2022-11-12T19:19:30.413Z,100.00
2022-11-12T19:24:50.719Z,100.00
2022-11-12T19:30:11.425Z,100.00
2022-11-12T19:35:33.508Z,100.00
2022-11-12T19:40:53.623Z,100.00
2022-11-12T19:46:14.927Z,100.00
2022-11-12T19:51:35.532Z,100.00
2022-11-12T19:56:56.244Z,100.00
2022-11-12T20:02:16.610Z,100.00
2022-11-12T20:07:37.213Z,100.00
2022-11-12T20:12:57.689Z,100.00
2022-11-12T20:18:18.113Z,100.00
2022-11-12T20:23:40.610Z,100.00
2022-11-12T20:29:00.629Z,100.00
2022-11-12T20:34:21.342Z,100.00
2022-11-12T20:39:41.629Z,100.00
2022-11-12T20:45:02.179Z,100.00
2022-11-12T20:50:22.901Z,100.00
2022-11-12T20:55:43.233Z,100.00
2022-11-12T21:01:05.200Z,100.00
2022-11-12T21:06:28.536Z,100.00
2022-11-12T21:11:48.797Z,100.00
2022-11-12T21:17:09.396Z,100.00
2022-11-12T21:22:29.788Z,100.00
2022-11-12T21:27:50.229Z,100.00
2022-11-12T21:33:12.170Z,100.00
2022-11-12T21:38:32.976Z,100.00
2022-11-12T21:43:53.986Z,100.00
2022-11-12T21:49:14.167Z,100.00
2022-11-12T21:54:35.527Z,100.00
2022-11-12T22:00:08.221Z,100.00
2022-11-12T22:05:37.166Z,100.00
2022-11-12T22:11:11.167Z,100.00
2022-11-12T22:16:31.623Z,100.00
2022-11-12T22:21:51.721Z,100.00
2022-11-12T22:27:12.157Z,100.00
2022-11-12T22:32:32.376Z,100.00
2022-11-12T22:37:54.540Z,100.00
2022-11-12T22:43:14.720Z,100.00
2022-11-12T22:48:35.625Z,100.00
2022-11-12T22:54:00.505Z,100.00
2022-11-12T22:59:20.895Z,100.00
2022-11-12T23:04:41.305Z,100.00
2022-11-12T23:10:01.557Z,100.00
2022-11-12T23:15:21.752Z,100.00
2022-11-12T23:20:42.053Z,100.00
2022-11-12T23:26:09.160Z,100.00
2022-11-12T23:31:31.065Z,100.00
2022-11-12T23:36:51.067Z,100.00
2022-11-12T23:42:11.481Z,100.00
2022-11-12T23:47:31.982Z,100.00
2022-11-12T23:52:52.239Z,100.00
2022-11-12T23:58:12.660Z,100.00
